Terminal Aerodrome Forecast
Issued by NWS

Home | Current Version | Previous Version | Text Only | Print | Product List | Glossary On
Versions: 1 2 3 4 5 6 7 8 9 10 11 12 13 14 15 16 17 18 19 20 21 22 23 24
000
FTUS46 KSEW 261502 AAA
TAFSEA
TAF AMD
KSEA 261502Z 2615/2718 18006KT P6SM OVC021
     FM262000 21015G22KT P6SM SCT030 BKN040
     FM270000 23017G24KT P6SM VCSH BKN040
     FM270400 31009KT P6SM -SHRA BKN025 OVC040
     FM270700 20012G20KT P6SM VCSH OVC035
     FM271200 20011KT P6SM VCSH OVC025=

USA.gov is the U.S. government's official web portal to all federal, state and local government web resources and services.